Taylor, TX (76574)

2:32 AM CST on February 09, 2016 (GMT -0600)
Central Taylor | | Change Station
CLOSE
Current Station
Personal Weather Station
Location: Taylor, TX
Elevation: 582 ft
Nearby Weather Stations

Elev 582 ft 30.57 °N, 97.42 °W | Updated 5 seconds ago

Clear
Clear
43.2 °F
Feels Like 43 °F
N
1.8
Wind Variable Wind from WNW
Gusts 2.7 mph

Today
High -- | Low -- °F
--% Chance of Precip.
Yesterday
High -- | Low -- °F
Precip. -- in
Pressure 30.35 in
Visibility 10.0 miles
Clouds Clear
Windchill 43 °F
Dew Point 22 °F
Humidity 42%
Rainfall 0.00 in
Snow Depth Not available.
7:15 AM 6:12 PM
New Moon, 1% visible
METAR KEDC 090815Z AUTO 29006KT 10SM CLR 05/M07 A3035 RMK AO2
Pressure 30.35 in
Visibility 10.0 miles
Clouds Clear
Windchill 43 °F
Dew Point 22 °F
Humidity 42%
Rainfall 0.00 in
Snow Depth Not available.
7:15 AM 6:12 PM
New Moon, 1% visible
METAR KEDC 090815Z AUTO 29006KT 10SM CLR 05/M07 A3035 RMK AO2

10-Day Weather Forecast

Almanac

Astronomy

Feb. 09, 2016 Rise Set
Actual Time
Civil Twilight
Nautical Twilight
Astronomical Twilight
Moon
Length of Visible Light
Length of Day
Tomorrow will be .
, % of the Moon is Illuminated

Today's Extremes

State Highs State Lows

Community

WunderPhotos

Upload Photos

1,891,571 photos uploaded!

WunderBlog® & News

Nearby

Air Quality

  Air Quality AQ Index Pollutant
Not available.

Snow Depth

Station Depth Elevation

Earthquake Activity

City Distance Mag. Time & Date
Minimum magnitude displayed is 2.5.

Coastal Water Temperatures

Place Temperature

Stations

Nearby Weather Stations

Station Location Temp. Windchill Dew Point Humidity Wind Precip. Elev Updated Type
                   

Watches & Warnings

There are currently no watches in effect.